sensor_id;sensor_type;location;lat;lon;timestamp;P1;durP1;ratioP1;P2;durP2;ratioP2
489;SDS011;231;48.120;11.576;2023-05-27T00:00:22;13.10;;;10.67;;
489;SDS011;231;48.120;11.576;2023-05-27T00:02:49;10.87;;;10.27;;
489;SDS011;231;48.120;11.576;2023-05-27T00:05:16;12.37;;;11.00;;
489;SDS011;231;48.120;11.576;2023-05-27T00:07:43;11.47;;;10.87;;
489;SDS011;231;48.120;11.576;2023-05-27T00:10:10;11.47;;;10.87;;
489;SDS011;231;48.120;11.576;2023-05-27T00:12:37;13.20;;;12.27;;
489;SDS011;231;48.120;11.576;2023-05-27T00:15:06;11.07;;;10.50;;
489;SDS011;231;48.120;11.576;2023-05-27T00:17:34;10.87;;;10.27;;
489;SDS011;231;48.120;11.576;2023-05-27T00:20:01;11.80;;;10.93;;
489;SDS011;231;48.120;11.576;2023-05-27T00:22:33;13.63;;;12.07;;
489;SDS011;231;48.120;11.576;2023-05-27T00:25:01;12.20;;;11.60;;
489;SDS011;231;48.120;11.576;2023-05-27T00:27:29;12.07;;;11.47;;
489;SDS011;231;48.120;11.576;2023-05-27T00:29:56;12.60;;;11.90;;
489;SDS011;231;48.120;11.576;2023-05-27T00:32:25;18.43;;;12.50;;
489;SDS011;231;48.120;11.576;2023-05-27T00:34:51;13.57;;;12.90;;
489;SDS011;231;48.120;11.576;2023-05-27T00:37:19;13.10;;;12.40;;
489;SDS011;231;48.120;11.576;2023-05-27T00:39:46;12.43;;;11.83;;
489;SDS011;231;48.120;11.576;2023-05-27T00:42:13;14.20;;;13.50;;
489;SDS011;231;48.120;11.576;2023-05-27T00:44:40;14.03;;;13.33;;
489;SDS011;231;48.120;11.576;2023-05-27T00:47:07;13.33;;;12.63;;
489;SDS011;231;48.120;11.576;2023-05-27T00:49:36;14.67;;;13.93;;
489;SDS011;231;48.120;11.576;2023-05-27T00:52:04;14.47;;;13.77;;
489;SDS011;231;48.120;11.576;2023-05-27T00:54:31;16.00;;;14.50;;
489;SDS011;231;48.120;11.576;2023-05-27T00:56:58;16.77;;;13.40;;
489;SDS011;231;48.120;11.576;2023-05-27T00:59:27;13.60;;;12.90;;
489;SDS011;231;48.120;11.576;2023-05-27T01:01:54;14.43;;;13.73;;
489;SDS011;231;48.120;11.576;2023-05-27T01:04:21;13.13;;;12.43;;
489;SDS011;231;48.120;11.576;2023-05-27T01:06:52;13.87;;;13.17;;
489;SDS011;231;48.120;11.576;2023-05-27T01:09:29;14.43;;;13.73;;
489;SDS011;231;48.120;11.576;2023-05-27T01:12:03;14.37;;;13.67;;
489;SDS011;231;48.120;11.576;2023-05-27T01:14:34;14.37;;;13.67;;
489;SDS011;231;48.120;11.576;2023-05-27T01:17:05;18.30;;;14.57;;
489;SDS011;231;48.120;11.576;2023-05-27T01:19:34;14.27;;;13.57;;
489;SDS011;231;48.120;11.576;2023-05-27T01:22:04;15.20;;;14.40;;
489;SDS011;231;48.120;11.576;2023-05-27T01:24:33;15.57;;;14.77;;
489;SDS011;231;48.120;11.576;2023-05-27T01:27:02;14.83;;;14.03;;
489;SDS011;231;48.120;11.576;2023-05-27T01:29:29;17.07;;;15.33;;
489;SDS011;231;48.120;11.576;2023-05-27T01:31:59;17.77;;;15.07;;
489;SDS011;231;48.120;11.576;2023-05-27T01:34:33;15.43;;;14.63;;
489;SDS011;231;48.120;11.576;2023-05-27T01:37:06;15.20;;;14.10;;
489;SDS011;231;48.120;11.576;2023-05-27T01:39:38;15.47;;;14.67;;
489;SDS011;231;48.120;11.576;2023-05-27T01:42:07;16.00;;;15.20;;
489;SDS011;231;48.120;11.576;2023-05-27T01:44:34;15.60;;;14.80;;
489;SDS011;231;48.120;11.576;2023-05-27T01:47:02;16.10;;;15.30;;
489;SDS011;231;48.120;11.576;2023-05-27T01:49:30;16.37;;;15.40;;
489;SDS011;231;48.120;11.576;2023-05-27T01:51:57;15.20;;;14.40;;
489;SDS011;231;48.120;11.576;2023-05-27T01:54:24;17.47;;;16.13;;
489;SDS011;231;48.120;11.576;2023-05-27T01:56:53;17.00;;;16.03;;
489;SDS011;231;48.120;11.576;2023-05-27T01:59:20;15.43;;;14.63;;
489;SDS011;231;48.120;11.576;2023-05-27T02:01:47;16.30;;;15.50;;
489;SDS011;231;48.120;11.576;2023-05-27T02:04:14;16.07;;;15.27;;
489;SDS011;231;48.120;11.576;2023-05-27T02:06:41;15.53;;;14.73;;
489;SDS011;231;48.120;11.576;2023-05-27T02:09:08;15.20;;;14.40;;
489;SDS011;231;48.120;11.576;2023-05-27T02:11:36;15.53;;;14.73;;
489;SDS011;231;48.120;11.576;2023-05-27T02:14:04;16.40;;;15.60;;
489;SDS011;231;48.120;11.576;2023-05-27T02:16:32;22.73;;;16.10;;
489;SDS011;231;48.120;11.576;2023-05-27T02:19:00;16.10;;;15.30;;
489;SDS011;231;48.120;11.576;2023-05-27T02:21:27;16.33;;;15.53;;
489;SDS011;231;48.120;11.576;2023-05-27T02:23:54;16.53;;;14.80;;
489;SDS011;231;48.120;11.576;2023-05-27T02:26:21;16.53;;;15.73;;
489;SDS011;231;48.120;11.576;2023-05-27T02:28:48;16.33;;;15.53;;
489;SDS011;231;48.120;11.576;2023-05-27T02:31:17;14.87;;;14.07;;
489;SDS011;231;48.120;11.576;2023-05-27T02:33:44;16.67;;;15.87;;
489;SDS011;231;48.120;11.576;2023-05-27T02:36:11;17.63;;;16.67;;
489;SDS011;231;48.120;11.576;2023-05-27T02:38:38;17.30;;;16.40;;
489;SDS011;231;48.120;11.576;2023-05-27T02:41:06;18.10;;;17.20;;
489;SDS011;231;48.120;11.576;2023-05-27T02:43:33;20.03;;;16.40;;
489;SDS011;231;48.120;11.576;2023-05-27T02:46:00;17.47;;;16.57;;
489;SDS011;231;48.120;11.576;2023-05-27T02:48:29;17.40;;;16.50;;
489;SDS011;231;48.120;11.576;2023-05-27T02:50:56;15.90;;;15.10;;
489;SDS011;231;48.120;11.576;2023-05-27T02:53:22;16.83;;;15.00;;
489;SDS011;231;48.120;11.576;2023-05-27T02:55:49;15.73;;;14.93;;
489;SDS011;231;48.120;11.576;2023-05-27T02:58:17;17.67;;;16.77;;
489;SDS011;231;48.120;11.576;2023-05-27T03:00:43;17.23;;;15.87;;
489;SDS011;231;48.120;11.576;2023-05-27T03:03:10;16.53;;;15.60;;
489;SDS011;231;48.120;11.576;2023-05-27T03:05:39;16.97;;;16.10;;
489;SDS011;231;48.120;11.576;2023-05-27T03:08:05;18.03;;;17.13;;
489;SDS011;231;48.120;11.576;2023-05-27T03:10:33;17.90;;;17.00;;
489;SDS011;231;48.120;11.576;2023-05-27T03:13:00;17.70;;;16.60;;
489;SDS011;231;48.120;11.576;2023-05-27T03:15:27;17.40;;;16.47;;
489;SDS011;231;48.120;11.576;2023-05-27T03:17:56;18.47;;;15.90;;
489;SDS011;231;48.120;11.576;2023-05-27T03:20:23;17.60;;;16.70;;
489;SDS011;231;48.120;11.576;2023-05-27T03:22:52;18.13;;;17.23;;
489;SDS011;231;48.120;11.576;2023-05-27T03:25:19;16.60;;;15.80;;
489;SDS011;231;48.120;11.576;2023-05-27T03:27:46;20.10;;;19.10;;
489;SDS011;231;48.120;11.576;2023-05-27T03:30:13;18.10;;;17.20;;
489;SDS011;231;48.120;11.576;2023-05-27T03:32:40;17.10;;;16.20;;
489;SDS011;231;48.120;11.576;2023-05-27T03:35:07;17.50;;;16.60;;
489;SDS011;231;48.120;11.576;2023-05-27T03:37:34;17.10;;;16.23;;
489;SDS011;231;48.120;11.576;2023-05-27T03:40:03;19.00;;;16.47;;
489;SDS011;231;48.120;11.576;2023-05-27T03:42:31;17.67;;;15.70;;
489;SDS011;231;48.120;11.576;2023-05-27T03:44:58;16.30;;;15.50;;
489;SDS011;231;48.120;11.576;2023-05-27T03:47:24;15.43;;;14.33;;
489;SDS011;231;48.120;11.576;2023-05-27T03:49:51;17.90;;;15.77;;
489;SDS011;231;48.120;11.576;2023-05-27T03:52:18;17.33;;;16.43;;
489;SDS011;231;48.120;11.576;2023-05-27T03:54:45;17.53;;;14.70;;
489;SDS011;231;48.120;11.576;2023-05-27T03:57:13;16.30;;;15.50;;
489;SDS011;231;48.120;11.576;2023-05-27T03:59:41;14.83;;;13.40;;
489;SDS011;231;48.120;11.576;2023-05-27T04:02:07;16.30;;;14.30;;
489;SDS011;231;48.120;11.576;2023-05-27T04:04:34;14.30;;;13.60;;
489;SDS011;231;48.120;11.576;2023-05-27T04:07:01;14.10;;;13.40;;
489;SDS011;231;48.120;11.576;2023-05-27T04:09:28;15.83;;;15.03;;
489;SDS011;231;48.120;11.576;2023-05-27T04:11:56;15.63;;;13.83;;
489;SDS011;231;48.120;11.576;2023-05-27T04:14:24;17.40;;;14.67;;
489;SDS011;231;48.120;11.576;2023-05-27T04:16:50;15.20;;;14.40;;
489;SDS011;231;48.120;11.576;2023-05-27T04:19:21;15.03;;;14.23;;
489;SDS011;231;48.120;11.576;2023-05-27T04:21:51;15.53;;;13.33;;
489;SDS011;231;48.120;11.576;2023-05-27T04:24:18;15.90;;;15.03;;
489;SDS011;231;48.120;11.576;2023-05-27T04:26:45;15.80;;;14.37;;
489;SDS011;231;48.120;11.576;2023-05-27T04:29:12;15.87;;;15.07;;
489;SDS011;231;48.120;11.576;2023-05-27T04:31:41;17.90;;;13.30;;
489;SDS011;231;48.120;11.576;2023-05-27T04:34:09;15.53;;;14.73;;
489;SDS011;231;48.120;11.576;2023-05-27T04:36:36;15.67;;;14.87;;
489;SDS011;231;48.120;11.576;2023-05-27T04:39:03;14.63;;;13.53;;
489;SDS011;231;48.120;11.576;2023-05-27T04:41:33;14.93;;;14.10;;
489;SDS011;231;48.120;11.576;2023-05-27T04:44:11;13.77;;;13.07;;
489;SDS011;231;48.120;11.576;2023-05-27T04:46:38;13.40;;;12.70;;
489;SDS011;231;48.120;11.576;2023-05-27T04:49:24;15.50;;;11.70;;
489;SDS011;231;48.120;11.576;2023-05-27T04:54:27;13.20;;;12.43;;
489;SDS011;231;48.120;11.576;2023-05-27T04:56:54;13.20;;;12.50;;
489;SDS011;231;48.120;11.576;2023-05-27T04:59:21;12.67;;;12.00;;
489;SDS011;231;48.120;11.576;2023-05-27T05:01:54;12.00;;;11.20;;
489;SDS011;231;48.120;11.576;2023-05-27T05:04:37;12.40;;;11.80;;
489;SDS011;231;48.120;11.576;2023-05-27T05:07:04;14.13;;;11.47;;
489;SDS011;231;48.120;11.576;2023-05-27T05:09:33;13.70;;;10.90;;
489;SDS011;231;48.120;11.576;2023-05-27T05:12:02;11.40;;;10.80;;
489;SDS011;231;48.120;11.576;2023-05-27T05:14:31;10.20;;;9.73;;
489;SDS011;231;48.120;11.576;2023-05-27T05:16:59;11.83;;;9.77;;
489;SDS011;231;48.120;11.576;2023-05-27T05:19:29;11.50;;;10.90;;
489;SDS011;231;48.120;11.576;2023-05-27T05:22:00;13.37;;;11.30;;
489;SDS011;231;48.120;11.576;2023-05-27T05:24:27;10.50;;;9.43;;
489;SDS011;231;48.120;11.576;2023-05-27T05:26:54;10.50;;;9.97;;
489;SDS011;231;48.120;11.576;2023-05-27T05:29:21;9.73;;;8.90;;
489;SDS011;231;48.120;11.576;2023-05-27T05:31:49;10.27;;;9.70;;
489;SDS011;231;48.120;11.576;2023-05-27T05:34:16;12.17;;;8.83;;
489;SDS011;231;48.120;11.576;2023-05-27T05:36:42;10.33;;;9.77;;
489;SDS011;231;48.120;11.576;2023-05-27T05:39:10;10.50;;;8.80;;
489;SDS011;231;48.120;11.576;2023-05-27T05:41:37;10.20;;;8.97;;
489;SDS011;231;48.120;11.576;2023-05-27T05:44:04;8.80;;;8.30;;
489;SDS011;231;48.120;11.576;2023-05-27T05:46:31;8.53;;;8.00;;
489;SDS011;231;48.120;11.576;2023-05-27T05:48:58;13.17;;;9.00;;
489;SDS011;231;48.120;11.576;2023-05-27T05:51:24;8.93;;;8.50;;
489;SDS011;231;48.120;11.576;2023-05-27T05:53:51;9.67;;;9.20;;
489;SDS011;231;48.120;11.576;2023-05-27T05:56:19;8.83;;;8.10;;
489;SDS011;231;48.120;11.576;2023-05-27T05:58:46;8.80;;;8.30;;
489;SDS011;231;48.120;11.576;2023-05-27T06:01:14;9.30;;;8.80;;
489;SDS011;231;48.120;11.576;2023-05-27T06:03:41;9.53;;;7.90;;
489;SDS011;231;48.120;11.576;2023-05-27T06:06:08;8.37;;;7.70;;
489;SDS011;231;48.120;11.576;2023-05-27T06:08:35;8.47;;;8.00;;
489;SDS011;231;48.120;11.576;2023-05-27T06:11:01;9.17;;;7.70;;
489;SDS011;231;48.120;11.576;2023-05-27T06:13:30;8.60;;;8.10;;
489;SDS011;231;48.120;11.576;2023-05-27T06:15:57;7.50;;;7.10;;
489;SDS011;231;48.120;11.576;2023-05-27T06:18:23;9.00;;;6.93;;
489;SDS011;231;48.120;11.576;2023-05-27T06:20:50;10.47;;;7.50;;
489;SDS011;231;48.120;11.576;2023-05-27T06:23:17;7.90;;;7.50;;
489;SDS011;231;48.120;11.576;2023-05-27T06:25:44;7.93;;;6.80;;
489;SDS011;231;48.120;11.576;2023-05-27T06:28:10;8.63;;;7.67;;
489;SDS011;231;48.120;11.576;2023-05-27T06:30:39;6.90;;;6.50;;
489;SDS011;231;48.120;11.576;2023-05-27T06:33:06;11.70;;;8.37;;
489;SDS011;231;48.120;11.576;2023-05-27T06:35:33;17.83;;;7.93;;
489;SDS011;231;48.120;11.576;2023-05-27T06:38:00;6.83;;;6.47;;
489;SDS011;231;48.120;11.576;2023-05-27T06:40:27;8.73;;;6.90;;
489;SDS011;231;48.120;11.576;2023-05-27T06:42:54;8.80;;;7.43;;
489;SDS011;231;48.120;11.576;2023-05-27T06:45:21;7.50;;;6.70;;
489;SDS011;231;48.120;11.576;2023-05-27T06:47:49;7.87;;;5.97;;
489;SDS011;231;48.120;11.576;2023-05-27T06:50:16;7.27;;;6.87;;
489;SDS011;231;48.120;11.576;2023-05-27T06:52:43;8.00;;;7.07;;
489;SDS011;231;48.120;11.576;2023-05-27T06:55:10;7.87;;;7.13;;
489;SDS011;231;48.120;11.576;2023-05-27T06:57:37;7.80;;;7.40;;
489;SDS011;231;48.120;11.576;2023-05-27T07:00:04;8.77;;;6.43;;
489;SDS011;231;48.120;11.576;2023-05-27T07:02:33;7.13;;;6.43;;
489;SDS011;231;48.120;11.576;2023-05-27T07:05:01;8.43;;;6.80;;
489;SDS011;231;48.120;11.576;2023-05-27T07:07:28;8.30;;;7.90;;
489;SDS011;231;48.120;11.576;2023-05-27T07:09:55;7.40;;;5.97;;
489;SDS011;231;48.120;11.576;2023-05-27T07:12:22;7.80;;;6.10;;
489;SDS011;231;48.120;11.576;2023-05-27T07:14:49;7.47;;;6.30;;
489;SDS011;231;48.120;11.576;2023-05-27T07:17:16;7.63;;;6.83;;
489;SDS011;231;48.120;11.576;2023-05-27T07:19:43;7.90;;;6.70;;
489;SDS011;231;48.120;11.576;2023-05-27T07:22:11;8.23;;;7.30;;
489;SDS011;231;48.120;11.576;2023-05-27T07:24:38;7.87;;;7.47;;
489;SDS011;231;48.120;11.576;2023-05-27T07:27:05;5.90;;;5.60;;
489;SDS011;231;48.120;11.576;2023-05-27T07:29:32;8.10;;;7.60;;
489;SDS011;231;48.120;11.576;2023-05-27T07:31:59;8.03;;;6.90;;
489;SDS011;231;48.120;11.576;2023-05-27T07:34:25;7.93;;;5.80;;
489;SDS011;231;48.120;11.576;2023-05-27T07:36:52;6.90;;;5.63;;
489;SDS011;231;48.120;11.576;2023-05-27T07:39:22;15.07;;;6.57;;
489;SDS011;231;48.120;11.576;2023-05-27T07:41:54;8.40;;;5.90;;
489;SDS011;231;48.120;11.576;2023-05-27T07:44:20;7.93;;;6.10;;
489;SDS011;231;48.120;11.576;2023-05-27T07:46:47;7.63;;;6.50;;
489;SDS011;231;48.120;11.576;2023-05-27T07:49:14;5.93;;;5.67;;
489;SDS011;231;48.120;11.576;2023-05-27T07:51:41;7.73;;;5.57;;
489;SDS011;231;48.120;11.576;2023-05-27T07:54:08;6.87;;;4.90;;
489;SDS011;231;48.120;11.576;2023-05-27T07:56:36;7.47;;;6.00;;
489;SDS011;231;48.120;11.576;2023-05-27T07:59:03;8.43;;;5.60;;
489;SDS011;231;48.120;11.576;2023-05-27T08:01:30;10.20;;;6.53;;
489;SDS011;231;48.120;11.576;2023-05-27T08:03:58;6.13;;;5.83;;
489;SDS011;231;48.120;11.576;2023-05-27T08:06:25;9.37;;;6.13;;
489;SDS011;231;48.120;11.576;2023-05-27T08:08:52;6.37;;;6.00;;
489;SDS011;231;48.120;11.576;2023-05-27T08:11:18;6.50;;;5.77;;
489;SDS011;231;48.120;11.576;2023-05-27T08:13:48;6.50;;;6.10;;
489;SDS011;231;48.120;11.576;2023-05-27T08:16:15;6.73;;;5.53;;
489;SDS011;231;48.120;11.576;2023-05-27T08:18:41;7.63;;;6.20;;
489;SDS011;231;48.120;11.576;2023-05-27T08:21:08;8.37;;;6.60;;
489;SDS011;231;48.120;11.576;2023-05-27T08:23:35;6.60;;;5.43;;
489;SDS011;231;48.120;11.576;2023-05-27T08:26:02;8.27;;;7.07;;
489;SDS011;231;48.120;11.576;2023-05-27T08:28:29;7.83;;;6.77;;
489;SDS011;231;48.120;11.576;2023-05-27T08:31:01;7.00;;;5.90;;
489;SDS011;231;48.120;11.576;2023-05-27T08:33:27;8.20;;;5.83;;
489;SDS011;231;48.120;11.576;2023-05-27T08:35:55;7.77;;;6.43;;
489;SDS011;231;48.120;11.576;2023-05-27T08:38:22;8.37;;;7.07;;
489;SDS011;231;48.120;11.576;2023-05-27T08:40:48;6.90;;;6.50;;
489;SDS011;231;48.120;11.576;2023-05-27T08:43:15;8.20;;;6.30;;
489;SDS011;231;48.120;11.576;2023-05-27T08:45:43;8.63;;;6.33;;
489;SDS011;231;48.120;11.576;2023-05-27T08:48:12;8.53;;;6.80;;
489;SDS011;231;48.120;11.576;2023-05-27T08:50:38;6.60;;;5.87;;
489;SDS011;231;48.120;11.576;2023-05-27T08:53:05;9.37;;;7.40;;
489;SDS011;231;48.120;11.576;2023-05-27T08:55:35;9.60;;;6.47;;
489;SDS011;231;48.120;11.576;2023-05-27T08:58:05;8.27;;;6.63;;
489;SDS011;231;48.120;11.576;2023-05-27T09:00:32;6.20;;;5.90;;
489;SDS011;231;48.120;11.576;2023-05-27T09:02:59;8.20;;;6.10;;
489;SDS011;231;48.120;11.576;2023-05-27T09:05:28;7.13;;;6.33;;
489;SDS011;231;48.120;11.576;2023-05-27T09:07:55;9.07;;;6.23;;
489;SDS011;231;48.120;11.576;2023-05-27T09:10:34;8.10;;;6.93;;
489;SDS011;231;48.120;11.576;2023-05-27T09:13:01;7.27;;;6.67;;
489;SDS011;231;48.120;11.576;2023-05-27T09:15:29;7.47;;;6.70;;
489;SDS011;231;48.120;11.576;2023-05-27T09:17:57;8.00;;;7.00;;
489;SDS011;231;48.120;11.576;2023-05-27T09:20:24;7.70;;;7.27;;
489;SDS011;231;48.120;11.576;2023-05-27T09:22:57;8.77;;;6.90;;
489;SDS011;231;48.120;11.576;2023-05-27T09:25:24;7.80;;;6.30;;
489;SDS011;231;48.120;11.576;2023-05-27T09:27:52;7.70;;;6.43;;
489;SDS011;231;48.120;11.576;2023-05-27T09:30:19;8.53;;;7.17;;
489;SDS011;231;48.120;11.576;2023-05-27T09:32:47;8.67;;;7.50;;
489;SDS011;231;48.120;11.576;2023-05-27T09:35:15;9.53;;;7.17;;
489;SDS011;231;48.120;11.576;2023-05-27T09:37:45;6.03;;;5.73;;
489;SDS011;231;48.120;11.576;2023-05-27T09:40:17;7.67;;;7.30;;
489;SDS011;231;48.120;11.576;2023-05-27T09:42:45;8.10;;;6.50;;
489;SDS011;231;48.120;11.576;2023-05-27T09:45:13;6.87;;;6.47;;
489;SDS011;231;48.120;11.576;2023-05-27T09:47:41;8.60;;;6.30;;
489;SDS011;231;48.120;11.576;2023-05-27T09:50:09;7.83;;;7.30;;
489;SDS011;231;48.120;11.576;2023-05-27T09:52:46;9.07;;;7.67;;
489;SDS011;231;48.120;11.576;2023-05-27T09:55:15;11.70;;;7.90;;
489;SDS011;231;48.120;11.576;2023-05-27T09:57:44;8.93;;;8.10;;
489;SDS011;231;48.120;11.576;2023-05-27T10:00:11;8.23;;;7.10;;
489;SDS011;231;48.120;11.576;2023-05-27T10:02:41;7.73;;;6.90;;
489;SDS011;231;48.120;11.576;2023-05-27T10:05:11;9.47;;;7.33;;
489;SDS011;231;48.120;11.576;2023-05-27T10:07:41;7.73;;;7.33;;
489;SDS011;231;48.120;11.576;2023-05-27T10:10:09;7.90;;;6.53;;
489;SDS011;231;48.120;11.576;2023-05-27T10:12:39;8.70;;;6.37;;
489;SDS011;231;48.120;11.576;2023-05-27T10:15:07;7.97;;;7.17;;
489;SDS011;231;48.120;11.576;2023-05-27T10:17:53;6.93;;;6.30;;
489;SDS011;231;48.120;11.576;2023-05-27T10:20:24;10.83;;;7.13;;
489;SDS011;231;48.120;11.576;2023-05-27T10:22:53;8.50;;;7.03;;
489;SDS011;231;48.120;11.576;2023-05-27T10:25:20;11.50;;;7.20;;
489;SDS011;231;48.120;11.576;2023-05-27T10:27:48;7.50;;;7.03;;
489;SDS011;231;48.120;11.576;2023-05-27T10:30:15;8.63;;;7.03;;
489;SDS011;231;48.120;11.576;2023-05-27T10:32:43;6.90;;;6.50;;
489;SDS011;231;48.120;11.576;2023-05-27T10:35:11;7.70;;;6.60;;
489;SDS011;231;48.120;11.576;2023-05-27T10:37:41;7.47;;;7.07;;
489;SDS011;231;48.120;11.576;2023-05-27T10:40:09;7.30;;;6.77;;
489;SDS011;231;48.120;11.576;2023-05-27T10:42:37;7.23;;;6.83;;
489;SDS011;231;48.120;11.576;2023-05-27T10:45:08;8.50;;;6.50;;
489;SDS011;231;48.120;11.576;2023-05-27T10:47:38;9.40;;;7.50;;
489;SDS011;231;48.120;11.576;2023-05-27T10:50:10;7.83;;;6.37;;
489;SDS011;231;48.120;11.576;2023-05-27T10:52:38;7.43;;;5.70;;
489;SDS011;231;48.120;11.576;2023-05-27T10:55:06;7.80;;;7.40;;
489;SDS011;231;48.120;11.576;2023-05-27T10:57:34;7.43;;;7.03;;
489;SDS011;231;48.120;11.576;2023-05-27T11:00:02;7.27;;;6.20;;
489;SDS011;231;48.120;11.576;2023-05-27T11:02:35;8.57;;;7.43;;
489;SDS011;231;48.120;11.576;2023-05-27T11:05:10;6.60;;;6.20;;
489;SDS011;231;48.120;11.576;2023-05-27T11:07:40;6.70;;;6.13;;
489;SDS011;231;48.120;11.576;2023-05-27T11:10:08;7.10;;;6.40;;
489;SDS011;231;48.120;11.576;2023-05-27T11:12:35;7.43;;;5.70;;
489;SDS011;231;48.120;11.576;2023-05-27T11:15:02;9.07;;;6.60;;
489;SDS011;231;48.120;11.576;2023-05-27T11:17:30;8.03;;;7.60;;
489;SDS011;231;48.120;11.576;2023-05-27T11:19:58;8.80;;;7.97;;
489;SDS011;231;48.120;11.576;2023-05-27T11:22:25;8.13;;;6.80;;
489;SDS011;231;48.120;11.576;2023-05-27T11:25:00;7.30;;;6.30;;
489;SDS011;231;48.120;11.576;2023-05-27T11:27:34;7.80;;;7.40;;
489;SDS011;231;48.120;11.576;2023-05-27T11:30:05;7.67;;;6.67;;
489;SDS011;231;48.120;11.576;2023-05-27T11:32:46;8.80;;;7.47;;
489;SDS011;231;48.120;11.576;2023-05-27T11:35:14;6.67;;;6.27;;
489;SDS011;231;48.120;11.576;2023-05-27T11:37:44;6.70;;;6.30;;
489;SDS011;231;48.120;11.576;2023-05-27T11:40:15;8.50;;;6.33;;
489;SDS011;231;48.120;11.576;2023-05-27T11:42:44;7.50;;;6.27;;
489;SDS011;231;48.120;11.576;2023-05-27T11:45:15;9.90;;;6.70;;
489;SDS011;231;48.120;11.576;2023-05-27T11:47:43;7.00;;;6.03;;
489;SDS011;231;48.120;11.576;2023-05-27T11:50:16;7.70;;;6.67;;
489;SDS011;231;48.120;11.576;2023-05-27T11:52:50;8.10;;;7.10;;
489;SDS011;231;48.120;11.576;2023-05-27T11:55:18;9.13;;;7.00;;
489;SDS011;231;48.120;11.576;2023-05-27T11:57:44;12.13;;;7.33;;
489;SDS011;231;48.120;11.576;2023-05-27T12:00:12;9.60;;;7.00;;
489;SDS011;231;48.120;11.576;2023-05-27T12:02:39;8.70;;;6.37;;
489;SDS011;231;48.120;11.576;2023-05-27T12:05:07;6.27;;;5.93;;
489;SDS011;231;48.120;11.576;2023-05-27T12:07:36;8.37;;;5.80;;
489;SDS011;231;48.120;11.576;2023-05-27T12:10:06;6.77;;;6.20;;
489;SDS011;231;48.120;11.576;2023-05-27T12:12:34;12.37;;;6.83;;
489;SDS011;231;48.120;11.576;2023-05-27T12:15:03;6.90;;;6.50;;
489;SDS011;231;48.120;11.576;2023-05-27T12:17:30;9.03;;;6.00;;
489;SDS011;231;48.120;11.576;2023-05-27T12:19:57;8.70;;;6.20;;
489;SDS011;231;48.120;11.576;2023-05-27T12:22:24;6.50;;;5.97;;
489;SDS011;231;48.120;11.576;2023-05-27T12:24:52;8.73;;;6.00;;
489;SDS011;231;48.120;11.576;2023-05-27T12:27:20;6.13;;;5.80;;
489;SDS011;231;48.120;11.576;2023-05-27T12:29:46;6.63;;;6.23;;
489;SDS011;231;48.120;11.576;2023-05-27T12:32:13;5.33;;;5.03;;
489;SDS011;231;48.120;11.576;2023-05-27T12:34:40;7.53;;;5.97;;
489;SDS011;231;48.120;11.576;2023-05-27T12:37:07;7.40;;;5.40;;
489;SDS011;231;48.120;11.576;2023-05-27T12:39:34;9.33;;;6.63;;
489;SDS011;231;48.120;11.576;2023-05-27T12:42:02;6.87;;;5.97;;
489;SDS011;231;48.120;11.576;2023-05-27T12:44:29;6.83;;;6.03;;
489;SDS011;231;48.120;11.576;2023-05-27T12:46:56;9.33;;;6.80;;
489;SDS011;231;48.120;11.576;2023-05-27T12:49:23;8.07;;;7.20;;
489;SDS011;231;48.120;11.576;2023-05-27T12:51:50;8.33;;;6.10;;
489;SDS011;231;48.120;11.576;2023-05-27T12:54:16;6.50;;;6.10;;
489;SDS011;231;48.120;11.576;2023-05-27T12:56:43;12.93;;;6.87;;
489;SDS011;231;48.120;11.576;2023-05-27T12:59:11;9.33;;;6.20;;
489;SDS011;231;48.120;11.576;2023-05-27T13:01:38;8.37;;;5.90;;
489;SDS011;231;48.120;11.576;2023-05-27T13:04:05;6.00;;;5.63;;
489;SDS011;231;48.120;11.576;2023-05-27T13:06:32;9.13;;;6.13;;
489;SDS011;231;48.120;11.576;2023-05-27T13:08:59;6.63;;;5.50;;
489;SDS011;231;48.120;11.576;2023-05-27T13:11:27;10.63;;;6.37;;
489;SDS011;231;48.120;11.576;2023-05-27T13:13:54;7.77;;;5.50;;
489;SDS011;231;48.120;11.576;2023-05-27T13:16:23;7.10;;;6.70;;
489;SDS011;231;48.120;11.576;2023-05-27T13:18:49;7.70;;;5.50;;
489;SDS011;231;48.120;11.576;2023-05-27T13:21:17;6.93;;;5.67;;
489;SDS011;231;48.120;11.576;2023-05-27T13:23:43;9.37;;;6.20;;
489;SDS011;231;48.120;11.576;2023-05-27T13:26:11;5.93;;;5.57;;
489;SDS011;231;48.120;11.576;2023-05-27T13:28:46;8.43;;;6.43;;
489;SDS011;231;48.120;11.576;2023-05-27T13:31:15;6.30;;;5.77;;
489;SDS011;231;48.120;11.576;2023-05-27T13:36:28;6.07;;;5.70;;
489;SDS011;231;48.120;11.576;2023-05-27T13:38:56;7.70;;;5.50;;
489;SDS011;231;48.120;11.576;2023-05-27T13:41:22;15.23;;;7.10;;
489;SDS011;231;48.120;11.576;2023-05-27T13:43:53;6.40;;;4.50;;
489;SDS011;231;48.120;11.576;2023-05-27T13:46:20;7.40;;;5.43;;
489;SDS011;231;48.120;11.576;2023-05-27T13:48:47;6.13;;;5.27;;
489;SDS011;231;48.120;11.576;2023-05-27T13:51:16;6.50;;;5.90;;
489;SDS011;231;48.120;11.576;2023-05-27T13:53:43;6.60;;;5.80;;
489;SDS011;231;48.120;11.576;2023-05-27T13:56:12;7.03;;;6.63;;
489;SDS011;231;48.120;11.576;2023-05-27T13:58:39;7.80;;;5.70;;
489;SDS011;231;48.120;11.576;2023-05-27T14:01:05;6.37;;;5.77;;
489;SDS011;231;48.120;11.576;2023-05-27T14:03:32;5.80;;;5.50;;
489;SDS011;231;48.120;11.576;2023-05-27T14:06:01;6.70;;;4.83;;
489;SDS011;231;48.120;11.576;2023-05-27T14:08:29;5.93;;;5.50;;
489;SDS011;231;48.120;11.576;2023-05-27T14:10:56;7.73;;;6.03;;
489;SDS011;231;48.120;11.576;2023-05-27T14:13:23;6.40;;;5.03;;
489;SDS011;231;48.120;11.576;2023-05-27T14:15:50;5.37;;;5.07;;
489;SDS011;231;48.120;11.576;2023-05-27T14:18:18;7.70;;;5.63;;
489;SDS011;231;48.120;11.576;2023-05-27T14:20:52;7.30;;;5.20;;
489;SDS011;231;48.120;11.576;2023-05-27T14:23:27;7.63;;;5.47;;
489;SDS011;231;48.120;11.576;2023-05-27T14:26:13;9.87;;;6.33;;
489;SDS011;231;48.120;11.576;2023-05-27T14:28:41;6.60;;;5.87;;
489;SDS011;231;48.120;11.576;2023-05-27T14:31:08;7.13;;;5.50;;
489;SDS011;231;48.120;11.576;2023-05-27T14:33:34;5.57;;;5.30;;
489;SDS011;231;48.120;11.576;2023-05-27T14:36:01;8.90;;;6.17;;
489;SDS011;231;48.120;11.576;2023-05-27T14:38:29;5.50;;;5.20;;
489;SDS011;231;48.120;11.576;2023-05-27T14:40:56;7.47;;;5.00;;
489;SDS011;231;48.120;11.576;2023-05-27T14:43:42;6.57;;;5.67;;
489;SDS011;231;48.120;11.576;2023-05-27T14:46:10;9.50;;;5.67;;
489;SDS011;231;48.120;11.576;2023-05-27T14:48:37;5.87;;;4.90;;
489;SDS011;231;48.120;11.576;2023-05-27T14:51:18;6.70;;;5.30;;
489;SDS011;231;48.120;11.576;2023-05-27T14:53:44;7.13;;;5.80;;
489;SDS011;231;48.120;11.576;2023-05-27T14:56:12;10.00;;;5.73;;
489;SDS011;231;48.120;11.576;2023-05-27T14:58:38;7.23;;;5.83;;
489;SDS011;231;48.120;11.576;2023-05-27T15:01:08;10.30;;;6.23;;
489;SDS011;231;48.120;11.576;2023-05-27T15:03:36;6.30;;;5.87;;
489;SDS011;231;48.120;11.576;2023-05-27T15:06:06;6.17;;;5.30;;
489;SDS011;231;48.120;11.576;2023-05-27T15:08:35;10.67;;;6.83;;
489;SDS011;231;48.120;11.576;2023-05-27T15:11:03;5.40;;;5.20;;
489;SDS011;231;48.120;11.576;2023-05-27T15:13:30;6.33;;;5.33;;
489;SDS011;231;48.120;11.576;2023-05-27T15:16:07;7.30;;;4.73;;
489;SDS011;231;48.120;11.576;2023-05-27T15:18:55;5.00;;;4.50;;
489;SDS011;231;48.120;11.576;2023-05-27T15:21:23;6.20;;;4.83;;
489;SDS011;231;48.120;11.576;2023-05-27T15:23:51;5.60;;;5.10;;
489;SDS011;231;48.120;11.576;2023-05-27T15:26:17;5.40;;;5.10;;
489;SDS011;231;48.120;11.576;2023-05-27T21:30:30;7.10;;;5.43;;
489;SDS011;231;48.120;11.576;2023-05-27T21:32:58;6.10;;;5.60;;